메인 페이지
METAR-TAF:

METAR-TAF

공항 :

아폰수 페나 국제공항

쿠리치바, 파라나, 브라질

위도: 25-31S, 경도: 049-10W, 고도: 908m

현재 날씨관측

예보는 55분 전, 09:00시(UTC)에 발표되었습니다.
동남동4kt
온도 17°C
습도 100%
기압 1008 hPa
시정 10km 이상
고도 900ft 상공 구름 많음

METAR: SBCT 300900Z 11004KT 9999 BKN009 17/17 Q1008

시각: 07:55 (09:55 UTC)

예보

예보는 6 시간 55분 전, 03:00시(UTC)에 발표되었습니다.
예보 대상 시간: 30일 06시부터 01일 06시까지 (UTC)
동남동6kt
시정: 8000m
고도 400ft 상공 구름 많음
고도 1200ft 상공 구름 많음
일시적
30일 06시부터 30일 16시까지 (UTC)
시정: 4000m
고도 800ft 상공 구름 많음
고도 1500ft 상공 구름 많음
전환 중
30일 16시부터 30일 18시까지 (UTC)
시정: 5000m
고도 1000ft 상공 구름 많음
고도 3000ft 상공 구름 조금, 적란운.
뇌우, 비
전환 중
30일 21시부터 30일 23시까지 (UTC)
시정: 8000m
고도 400ft 상공 구름 많음
전환 중
01일 00시부터 01일 02시까지 (UTC)
시정: 3000m
고도 700ft 상공 구름 많음
박무

TAF: SBCT 300300Z 3006/0106 11006KT 8000 BKN004 BKN012 TN16/3009Z TX23/3016Z TEMPO 3006/3016 4000 RA BKN008 BKN015 BECMG 3016/3018 5000 TSRA BKN010 FEW030CB BECMG 3021/3023 8000 NSW BKN004 BECMG 0100/0102 3000 BR BKN007 RMK PFR

4,000개 이상의 공항 관측 자료 및 예보 (METAR 및 TAF 보고).

지도상에서 검색 가능한 기상관측소가 노란 점과 빨간 점으로 표시되어 있습니다.

기상관측소 명을 보려면 표시 위로 마우스를 이동하세요.

날씨 관측과 예보를 보려면 클릭하세요.

지도 변경 : 확대하려면 엑스 표시가 있는 녹색 버튼, 축소하려면 빼기 표시가 있는 녹색 버튼, 다음 페이지의 지도를 보려면 녹색 화살표를 클릭하세요.


METAR-TAF: